Time;durP1;ratioP1;P1;durP2;ratioP2;P2;SDS_P1;SDS_P2;PMS_P1;PMS_P2;Temp;Humidity;BMP_temperature;BMP_pressure;BME280_temperature;BME280_humidity;BME280_pressure;Samples;Min_cycle;Max_cycle;Signal;HPM_P1;HPM_P2
2022/04/08 00:00:41;;;;;;;10.05;7.00;;;;;;;8.40;69.45;97807.66;5015265;28;20041;-71
2022/04/08 00:03:06;;;;;;;18.33;11.02;;;;;;;8.41;68.23;97790.75;5015648;28;20123;-74
2022/04/08 00:05:31;;;;;;;18.20;12.13;;;;;;;8.19;68.45;97803.31;5015877;28;20171;-72
2022/04/08 00:07:56;;;;;;;19.85;11.98;;;;;;;8.13;69.05;97805.69;5031606;28;20403;-74
2022/04/08 00:10:20;;;;;;;16.25;11.02;;;;;;;8.07;69.08;97798.28;5016262;28;20044;-74
2022/04/08 00:12:45;;;;;;;20.65;12.77;;;;;;;7.92;69.13;97806.63;5017308;28;20057;-77
2022/04/08 00:15:11;;;;;;;14.30;10.50;;;;;;;8.04;68.73;97804.69;5016730;28;20037;-76
2022/04/08 00:17:35;;;;;;;19.60;13.05;;;;;;;7.96;68.20;97807.22;5015437;28;20049;-75
2022/04/08 00:20:00;;;;;;;15.30;10.43;;;;;;;7.91;69.07;97802.31;5014756;28;20068;-75
2022/04/08 00:22:28;;;;;;;14.38;10.98;;;;;;;8.21;67.59;97800.53;5027045;28;20041;-79
2022/04/08 00:24:53;;;;;;;13.85;10.10;;;;;;;8.07;67.91;97804.44;4999208;28;20048;-75
2022/04/08 00:27:17;;;;;;;14.52;10.23;;;;;;;8.06;67.10;97804.56;5015657;28;20123;-76
2022/04/08 00:29:42;;;;;;;20.55;11.07;;;;;;;7.98;67.28;97795.50;5016155;28;20146;-74
2022/04/08 00:32:07;;;;;;;19.08;11.18;;;;;;;8.00;66.88;97792.69;4998001;28;20049;-71
2022/04/08 00:34:32;;;;;;;13.27;10.00;;;;;;;8.13;66.96;97797.72;5001094;28;20387;-73
2022/04/08 00:36:57;;;;;;;11.32;7.90;;;;;;;8.13;66.60;97801.19;5013773;28;20514;-74
2022/04/08 00:39:22;;;;;;;10.48;8.27;;;;;;;8.02;66.73;97798.69;5017619;28;20047;-72
2022/04/08 00:41:48;;;;;;;12.05;7.88;;;;;;;8.09;66.59;97796.34;5018824;28;20476;-74
2022/04/08 00:44:12;;;;;;;19.85;10.07;;;;;;;8.03;66.24;97789.75;5020102;28;20044;-78
2022/04/08 00:46:38;;;;;;;14.50;9.18;;;;;;;7.85;66.85;97796.72;5020331;28;20102;-79
2022/04/08 00:49:02;;;;;;;10.55;6.93;;;;;;;7.98;66.95;97795.50;5002983;28;20032;-80
2022/04/08 00:51:27;;;;;;;16.00;9.90;;;;;;;7.84;66.53;97787.09;5020901;28;20045;-75
2022/04/08 00:53:52;;;;;;;16.75;10.20;;;;;;;7.76;66.97;97795.75;5019976;28;20492;-75
2022/04/08 00:56:21;;;;;;;13.45;8.15;;;;;;;7.84;66.93;97795.88;5019234;28;20048;-78
2022/04/08 00:58:46;;;;;;;13.45;7.78;;;;;;;7.88;66.66;97783.19;5019692;28;20053;-75
2022/04/08 01:01:10;;;;;;;15.75;9.55;;;;;;;7.67;66.58;97793.06;5019395;28;20052;-77
2022/04/08 01:03:35;;;;;;;14.73;9.68;;;;;;;7.81;66.84;97788.19;5018393;28;20529;-76
2022/04/08 01:06:00;;;;;;;15.02;10.75;;;;;;;7.56;66.62;97789.53;5019246;28;20040;-79
2022/04/08 01:08:25;;;;;;;12.80;8.77;;;;;;;7.55;66.75;97790.53;5019585;28;20037;-71
2022/04/08 01:10:50;;;;;;;17.13;10.02;;;;;;;7.56;67.21;97794.84;5019178;28;20462;-76
2022/04/08 01:13:15;;;;;;;14.60;10.35;;;;;;;7.43;67.06;97794.28;5019638;28;20051;-75
2022/04/08 01:15:40;;;;;;;13.73;8.68;;;;;;;7.56;66.95;97797.50;5002070;28;20128;-73
2022/04/08 01:18:05;;;;;;;13.50;9.30;;;;;;;7.39;67.35;97798.16;5017893;28;20033;-75
2022/04/08 01:20:30;;;;;;;18.55;10.82;;;;;;;7.38;67.44;97796.47;5020467;28;20041;-79
2022/04/08 01:22:54;;;;;;;15.48;8.25;;;;;;;7.50;66.67;97784.78;5020603;28;20044;-74
2022/04/08 01:25:19;;;;;;;13.13;10.05;;;;;;;7.49;66.26;97785.75;5003883;28;20047;-79
2022/04/08 01:27:44;;;;;;;15.27;8.70;;;;;;;7.44;66.50;97793.31;5020569;28;20493;-76
2022/04/08 01:30:12;;;;;;;10.60;7.72;;;;;;;7.75;65.96;97779.97;5016321;28;20044;-78
2022/04/08 01:32:37;;;;;;;13.80;8.48;;;;;;;7.71;65.52;97781.19;4999574;28;20112;-76
2022/04/08 01:35:03;;;;;;;12.88;8.57;;;;;;;7.60;65.51;97790.13;4983550;28;20036;-75
2022/04/08 01:37:28;;;;;;;14.00;7.40;;;;;;;7.49;65.99;97798.19;5014311;28;20103;-73
2022/04/08 01:39:53;;;;;;;15.93;8.43;;;;;;;7.54;65.40;97791.50;5014286;28;20052;-74
2022/04/08 01:42:22;;;;;;;14.07;7.32;;;;;;;7.67;65.87;97795.72;5000381;28;20411;-72
2022/04/08 01:44:47;;;;;;;12.77;8.52;;;;;;;7.67;64.90;97793.06;5015758;28;20055;-70
2022/04/08 01:47:11;;;;;;;12.05;6.95;;;;;;;7.90;64.43;97797.97;5018624;28;20530;-77
2022/04/08 01:49:36;;;;;;;11.63;8.55;;;;;;;7.78;64.15;97792.97;5034350;28;20076;-75
2022/04/08 01:52:01;;;;;;;16.25;9.52;;;;;;;7.68;64.78;97800.88;5018799;28;20044;-78
2022/04/08 01:54:26;;;;;;;10.27;7.03;;;;;;;7.63;64.76;97796.00;4996648;28;20106;-79
2022/04/08 01:56:51;;;;;;;11.50;6.85;;;;;;;7.69;64.38;97791.09;4985655;28;20045;-78
2022/04/08 01:59:16;;;;;;;11.15;7.70;;;;;;;7.51;64.90;97794.44;5019948;28;20102;-80
2022/04/08 02:01:41;;;;;;;16.65;9.07;;;;;;;7.54;65.11;97791.50;5020155;28;20135;-82
2022/04/08 02:04:06;;;;;;;17.50;8.50;;;;;;;7.67;63.94;97795.72;5020530;28;20178;-79
2022/04/08 02:06:31;;;;;;;12.73;7.45;;;;;;;7.75;63.80;97809.13;5002625;28;20072;-81
2022/04/08 02:08:57;;;;;;;13.65;7.68;;;;;;;7.61;63.72;97803.25;5010991;28;20411;-79
2022/04/08 02:11:22;;;;;;;14.85;7.93;;;;;;;7.67;64.07;97809.00;5014050;28;20063;-80
2022/04/08 02:13:46;;;;;;;4.63;4.15;;;;;;;7.87;63.61;97814.19;5003127;28;20048;-77
2022/04/08 02:16:11;;;;;;;11.95;7.32;;;;;;;7.61;63.24;97795.28;5023521;28;20071;-74
2022/04/08 02:18:36;;;;;;;10.98;7.15;;;;;;;7.70;63.54;97801.56;5036118;28;20048;-72
2022/04/08 02:21:01;;;;;;;10.82;6.15;;;;;;;7.79;63.01;97803.41;5035490;28;20038;-74
2022/04/08 02:23:26;;;;;;;8.65;5.00;;;;;;;7.76;62.75;97785.13;5035599;28;20112;-73
2022/04/08 02:25:50;;;;;;;15.02;7.15;;;;;;;7.72;62.55;97798.78;5022692;28;20031;-74
2022/04/08 02:28:15;;;;;;;8.90;5.18;;;;;;;7.84;62.59;97808.31;5032609;28;20515;-73
2022/04/08 02:30:40;;;;;;;11.90;7.03;;;;;;;7.89;62.25;97795.50;5020859;28;20037;-73
2022/04/08 02:33:05;;;;;;;9.32;6.70;;;;;;;7.84;62.36;97789.75;5018601;28;20044;-74
2022/04/08 02:35:32;;;;;;;9.65;7.30;;;;;;;7.75;62.42;97796.72;5033322;28;20020;-76
2022/04/08 02:37:57;;;;;;;11.45;8.13;;;;;;;7.87;62.31;97803.56;5033666;28;20040;-77
2022/04/08 02:40:22;;;;;;;14.02;6.97;;;;;;;7.74;62.29;97803.00;5033699;28;20040;-75
2022/04/08 02:42:47;;;;;;;8.50;5.90;;;;;;;7.80;62.58;97797.13;5029974;28;20493;-71
2022/04/08 02:45:12;;;;;;;11.07;7.50;;;;;;;7.60;61.88;97793.59;5028853;28;20037;-70
2022/04/08 02:47:44;;;;;;;11.48;7.90;;;;;;;7.56;62.67;97805.44;5016616;28;20044;-73
2022/04/08 02:50:09;;;;;;;10.30;6.82;;;;;;;7.59;62.23;97799.03;5013543;28;20040;-66
2022/04/08 02:52:35;;;;;;;8.73;5.20;;;;;;;7.79;61.59;97799.94;4994933;28;20041;-67
2022/04/08 02:55:00;;;;;;;13.02;6.53;;;;;;;7.75;61.65;97801.19;4991240;28;20072;-67
2022/04/08 02:57:24;;;;;;;10.02;5.22;;;;;;;7.71;61.55;97808.56;4999792;28;20083;-67
2022/04/08 02:59:52;;;;;;;11.27;6.15;;;;;;;7.81;61.28;97817.38;5002048;28;20537;-68
2022/04/08 03:02:17;;;;;;;8.90;6.70;;;;;;;7.71;61.60;97802.41;5013956;28;20128;-68
2022/04/08 03:04:42;;;;;;;8.60;5.70;;;;;;;7.91;61.00;97801.47;5010825;28;20124;-67
2022/04/08 03:07:06;;;;;;;8.65;5.93;;;;;;;7.89;61.08;97808.75;5014744;28;20377;-67
2022/04/08 03:09:31;;;;;;;10.27;6.60;;;;;;;7.79;61.09;97810.56;5005529;28;20056;-66
2022/04/08 03:11:56;;;;;;;9.65;6.32;;;;;;;7.81;60.34;97811.22;5014919;28;20047;-70
2022/04/08 03:14:21;;;;;;;12.73;6.30;;;;;;;7.73;60.77;97809.28;5014332;28;20094;-73
2022/04/08 03:16:45;;;;;;;4.70;3.85;;;;;;;7.88;61.12;97804.41;5015551;28;20048;-67
2022/04/08 03:19:10;;;;;;;7.22;5.38;;;;;;;7.96;59.85;97800.09;5015646;28;20515;-71
2022/04/08 03:21:35;;;;;;;13.95;7.38;;;;;;;7.86;60.32;97811.66;5016201;28;20049;-68
2022/04/08 03:24:00;;;;;;;11.70;7.57;;;;;;;8.01;59.27;97820.91;5017090;28;20043;-64
2022/04/08 03:26:25;;;;;;;12.43;6.38;;;;;;;8.00;59.50;97813.94;5021319;28;20486;-67
2022/04/08 03:28:50;;;;;;;9.43;5.28;;;;;;;8.11;58.96;97820.94;5003358;28;20041;-66
2022/04/08 03:31:15;;;;;;;7.85;5.60;;;;;;;8.15;59.40;97809.88;5014949;28;20036;-66
2022/04/08 03:33:39;;;;;;;11.25;6.93;;;;;;;8.06;58.74;97802.75;5015956;28;20405;-68
2022/04/08 03:36:05;;;;;;;11.70;7.68;;;;;;;7.90;59.75;97813.09;4980649;28;20496;-65
2022/04/08 03:38:29;;;;;;;9.00;6.45;;;;;;;8.13;58.53;97811.81;4997347;28;20044;-65
2022/04/08 03:40:54;;;;;;;11.95;6.28;;;;;;;8.19;58.30;97802.47;5014872;28;20045;-67
2022/04/08 03:43:19;;;;;;;8.38;5.03;;;;;;;8.13;58.91;97803.03;5013826;28;20051;-69
2022/04/08 03:45:43;;;;;;;16.73;6.90;;;;;;;8.07;58.69;97800.94;4997079;28;20056;-69
2022/04/08 03:48:08;;;;;;;9.18;5.85;;;;;;;8.13;58.88;97825.09;5014917;28;20538;-69
2022/04/08 03:50:35;;;;;;;10.98;6.55;;;;;;;8.31;57.49;97811.97;4997655;28;20158;-75
2022/04/08 03:52:59;;;;;;;12.35;6.03;;;;;;;8.45;57.09;97822.22;5014130;28;20044;-76
2022/04/08 03:55:24;;;;;;;7.15;5.60;;;;;;;8.46;57.11;97823.06;4981580;28;20127;-75
2022/04/08 03:57:49;;;;;;;9.85;5.85;;;;;;;8.50;57.60;97814.66;5015208;28;20409;-76
2022/04/08 04:00:14;;;;;;;8.38;5.10;;;;;;;8.46;57.16;97815.09;5015232;28;20044;-74
2022/04/08 04:02:39;;;;;;;9.70;6.40;;;;;;;8.55;57.25;97811.59;5016042;28;20049;-74
2022/04/08 04:05:04;;;;;;;6.50;4.20;;;;;;;8.77;56.34;97821.91;5018784;28;20053;-75
2022/04/08 04:07:29;;;;;;;9.90;5.35;;;;;;;8.77;56.01;97826.38;5016734;28;20048;-75
2022/04/08 04:09:54;;;;;;;14.52;6.03;;;;;;;8.72;55.94;97818.81;5020893;28;20048;-74
2022/04/08 04:12:19;;;;;;;8.77;6.18;;;;;;;8.80;55.80;97813.66;5020069;28;20037;-74
2022/04/08 04:14:44;;;;;;;11.90;6.20;;;;;;;8.57;56.49;97829.06;5020334;28;20056;-75
2022/04/08 04:17:09;;;;;;;13.98;6.47;;;;;;;8.79;55.34;97817.28;5021130;28;20041;-75
2022/04/08 04:19:34;;;;;;;8.80;5.47;;;;;;;8.72;55.32;97821.47;5020171;28;20048;-74
2022/04/08 04:21:58;;;;;;;7.57;5.15;;;;;;;8.73;56.15;97824.00;5020043;28;20047;-73
2022/04/08 04:24:23;;;;;;;8.00;6.20;;;;;;;8.91;55.82;97825.94;5019718;28;20052;-76
2022/04/08 04:26:48;;;;;;;11.63;6.10;;;;;;;8.89;55.40;97818.09;5018599;28;20037;-75
2022/04/08 04:29:13;;;;;;;9.55;6.55;;;;;;;8.90;54.64;97826.91;5019862;28;20048;-74
2022/04/08 04:31:37;;;;;;;9.45;5.90;;;;;;;8.96;54.89;97823.66;5019180;28;20410;-75
2022/04/08 04:34:02;;;;;;;9.00;6.05;;;;;;;8.89;55.31;97814.59;5017152;28;20073;-76
2022/04/08 04:36:27;;;;;;;11.00;6.47;;;;;;;8.92;54.56;97819.59;5018721;28;20041;-76
2022/04/08 04:38:51;;;;;;;13.30;6.75;;;;;;;8.73;54.95;97817.84;5018535;28;20052;-76
2022/04/08 04:41:17;;;;;;;4.05;3.28;;;;;;;8.82;55.32;97830.25;5025608;28;20041;-75
2022/04/08 04:43:42;;;;;;;9.10;5.55;;;;;;;8.94;54.67;97817.66;5028231;28;20072;-75
2022/04/08 04:46:07;;;;;;;9.73;6.53;;;;;;;8.93;54.74;97816.81;5029915;28;20045;-75
2022/04/08 04:48:32;;;;;;;9.98;7.25;;;;;;;8.73;54.65;97820.50;5021278;28;20044;-74
2022/04/08 04:50:57;;;;;;;13.80;6.20;;;;;;;8.81;54.68;97828.56;5000680;28;20554;-75
2022/04/08 04:53:21;;;;;;;11.90;5.15;;;;;;;8.89;54.32;97820.75;5018266;28;20136;-75
2022/04/08 04:55:46;;;;;;;8.52;5.32;;;;;;;8.99;54.02;97821.56;5019117;28;20055;-74
2022/04/08 04:58:11;;;;;;;10.00;6.68;;;;;;;8.99;53.97;97815.41;5000782;28;20056;-73
2022/04/08 05:00:36;;;;;;;8.80;5.60;;;;;;;9.00;54.08;97820.59;5016794;28;20079;-73
2022/04/08 05:03:01;;;;;;;12.25;6.22;;;;;;;8.90;53.63;97819.78;5018395;28;20041;-73
2022/04/08 05:05:26;;;;;;;9.25;5.55;;;;;;;8.92;53.35;97815.13;5000283;28;20051;-73
2022/04/08 05:07:51;;;;;;;9.75;6.30;;;;;;;8.93;53.66;97818.63;5018683;28;20101;-73
2022/04/08 05:10:15;;;;;;;8.65;4.70;;;;;;;9.18;53.33;97810.03;5000611;28;20049;-74
2022/04/08 05:12:40;;;;;;;12.27;5.28;;;;;;;9.54;52.52;97812.81;5018718;28;20045;-73
2022/04/08 05:15:07;;;;;;;10.20;6.53;;;;;;;9.63;52.27;97820.75;5018435;28;20040;-75
2022/04/08 05:17:32;;;;;;;10.50;6.07;;;;;;;9.93;50.80;97814.25;5005961;28;20045;-74
2022/04/08 05:19:57;;;;;;;7.35;5.05;;;;;;;10.18;51.43;97816.22;5013557;28;20495;-75
2022/04/08 05:22:21;;;;;;;10.43;6.28;;;;;;;10.37;50.05;97812.56;5017750;28;20459;-75
2022/04/08 05:24:46;;;;;;;7.75;5.35;;;;;;;10.68;49.41;97809.50;5016807;28;20525;-74
2022/04/08 05:27:11;;;;;;;10.43;6.72;;;;;;;10.58;48.92;97806.09;5017960;28;20041;-77
2022/04/08 05:29:36;;;;;;;10.50;5.75;;;;;;;10.92;48.43;97807.00;5017365;28;20079;-74
2022/04/08 05:32:00;;;;;;;11.32;7.35;;;;;;;11.20;47.72;97810.31;4999885;28;20167;-74
2022/04/08 05:34:27;;;;;;;11.65;6.32;;;;;;;11.60;46.38;97818.56;5017631;28;20047;-75
2022/04/08 05:36:52;;;;;;;9.77;6.63;;;;;;;11.77;44.83;97806.13;5017464;28;20423;-76
2022/04/08 05:39:16;;;;;;;9.93;5.35;;;;;;;12.17;45.36;97809.91;5016180;28;20040;-76
2022/04/08 05:41:41;;;;;;;10.23;6.75;;;;;;;12.48;44.32;97808.25;5037894;28;20052;-76
2022/04/08 05:44:06;;;;;;;11.38;5.82;;;;;;;12.56;43.56;97800.25;5042981;28;20108;-76
2022/04/08 05:46:31;;;;;;;9.20;5.60;;;;;;;12.80;43.20;97798.56;5032177;28;20045;-67
2022/04/08 05:48:55;;;;;;;9.13;5.70;;;;;;;13.30;42.17;97799.19;5021727;28;20040;-68
2022/04/08 05:51:20;;;;;;;8.55;6.10;;;;;;;13.98;40.59;97797.75;5017255;28;20037;-76
2022/04/08 05:53:45;;;;;;;14.95;6.43;;;;;;;14.14;39.96;97797.63;4999604;28;20064;-75
2022/04/08 05:56:09;;;;;;;7.63;5.35;;;;;;;14.44;39.52;97793.28;5017581;28;20395;-75
2022/04/08 05:58:34;;;;;;;12.02;4.95;;;;;;;14.65;40.05;97796.13;5017168;28;20057;-74
2022/04/08 06:01:00;;;;;;;13.07;6.82;;;;;;;14.38;40.02;97785.91;5015960;28;20044;-74
2022/04/08 06:03:24;;;;;;;9.60;6.00;;;;;;;14.66;38.43;97792.44;5016603;28;20446;-74
2022/04/08 06:05:49;;;;;;;9.10;6.32;;;;;;;15.06;38.14;97790.38;5016760;28;20093;-74
2022/04/08 06:08:14;;;;;;;16.10;7.35;;;;;;;15.65;36.23;97785.06;5016716;28;20044;-74
2022/04/08 06:10:39;;;;;;;12.20;6.30;;;;;;;16.58;35.48;97794.00;5021554;28;20056;-75
2022/04/08 06:13:04;;;;;;;9.07;5.47;;;;;;;16.82;34.90;97797.31;5020331;28;20037;-75
2022/04/08 06:15:28;;;;;;;11.18;6.22;;;;;;;17.12;34.21;97795.28;5022565;28;20098;-76
2022/04/08 06:17:57;;;;;;;10.70;6.82;;;;;;;17.34;32.76;97786.13;5022935;28;20076;-75
2022/04/08 06:20:23;;;;;;;9.63;6.25;;;;;;;17.48;32.95;97797.81;5016905;28;20127;-75
2022/04/08 06:22:49;;;;;;;15.98;6.28;;;;;;;17.16;33.38;97801.94;5015391;28;20068;-73
2022/04/08 06:25:16;;;;;;;9.85;6.30;;;;;;;16.40;34.78;97808.88;4998619;28;20075;-76
2022/04/08 06:27:41;;;;;;;10.23;6.95;;;;;;;15.61;35.96;97806.09;5016592;28;20045;-76
2022/04/08 06:30:10;;;;;;;11.45;6.35;;;;;;;15.35;35.66;97809.19;5016336;28;20098;-74
2022/04/08 06:32:36;;;;;;;9.70;6.32;;;;;;;15.66;35.74;97809.06;4997609;28;20124;-74
2022/04/08 06:35:01;;;;;;;9.75;6.28;;;;;;;16.15;35.07;97800.34;5014486;28;20049;-74
2022/04/08 06:37:28;;;;;;;12.60;6.72;;;;;;;15.87;34.51;97809.13;4997616;28;20438;-75
2022/04/08 06:39:53;;;;;;;10.68;7.38;;;;;;;15.70;35.53;97806.81;5014766;28;20129;-74
2022/04/08 06:42:17;;;;;;;7.60;5.20;;;;;;;16.04;35.31;97820.47;5016394;28;20043;-75
2022/04/08 06:44:42;;;;;;;12.50;6.95;;;;;;;15.57;35.80;97807.50;5014986;28;20044;-74
2022/04/08 06:47:07;;;;;;;10.60;6.70;;;;;;;15.15;36.81;97805.38;5016333;28;20054;-73
2022/04/08 06:49:31;;;;;;;11.13;7.10;;;;;;;15.00;37.24;97809.91;4998015;28;20068;-74
2022/04/08 06:51:58;;;;;;;12.50;6.68;;;;;;;14.45;37.32;97809.16;5016098;28;20045;-74
2022/04/08 06:54:23;;;;;;;11.05;6.60;;;;;;;14.52;38.36;97811.97;5016189;28;20479;-73
2022/04/08 06:56:48;;;;;;;13.32;7.50;;;;;;;14.38;38.24;97802.81;5016426;28;20395;-76
2022/04/08 06:59:12;;;;;;;9.13;7.25;;;;;;;14.24;37.78;97800.06;4999703;28;20458;-74
2022/04/08 07:01:37;;;;;;;11.02;7.35;;;;;;;14.01;38.75;97800.88;5016253;28;20136;-75
2022/04/08 07:04:02;;;;;;;12.45;6.82;;;;;;;13.94;38.01;97807.97;5016480;28;20041;-75
2022/04/08 07:06:26;;;;;;;13.02;7.07;;;;;;;14.17;38.27;97814.19;5016534;28;20044;-74
2022/04/08 07:08:51;;;;;;;9.90;6.75;;;;;;;14.21;37.95;97798.59;4997715;28;20056;-75
2022/04/08 07:11:16;;;;;;;12.63;7.43;;;;;;;14.08;38.47;97809.91;4997748;28;20049;-71
2022/04/08 07:13:41;;;;;;;8.90;6.53;;;;;;;14.10;37.96;97818.59;5014296;28;20044;-67
2022/04/08 07:16:06;;;;;;;13.18;6.95;;;;;;;14.14;37.75;97819.91;4997593;28;20095;-68
2022/04/08 07:18:30;;;;;;;10.40;6.72;;;;;;;13.66;38.35;97814.78;5014237;28;20043;-68
2022/04/08 07:20:55;;;;;;;14.23;8.27;;;;;;;13.64;38.85;97825.69;5014327;28;20427;-68
2022/04/08 07:23:20;;;;;;;12.60;8.07;;;;;;;13.41;39.50;97814.88;5015481;28;20357;-67
2022/04/08 07:25:44;;;;;;;14.52;7.55;;;;;;;13.74;38.94;97812.91;5014841;28;20052;-68
2022/04/08 07:28:10;;;;;;;12.10;6.78;;;;;;;14.06;39.17;97822.63;5014324;28;20084;-68
2022/04/08 07:30:35;;;;;;;12.73;6.70;;;;;;;14.46;38.20;97818.03;5015496;28;20045;-68
2022/04/08 07:33:01;;;;;;;14.02;6.97;;;;;;;14.70;37.01;97814.34;5015052;28;20041;-67
2022/04/08 07:35:26;;;;;;;11.88;7.88;;;;;;;14.55;36.91;97808.94;5014984;28;20056;-68
2022/04/08 07:37:51;;;;;;;14.05;7.38;;;;;;;14.69;37.29;97804.63;5014851;28;20094;-68
2022/04/08 07:40:16;;;;;;;14.80;7.15;;;;;;;14.69;36.70;97816.19;5014726;28;20049;-68
2022/04/08 07:42:42;;;;;;;15.82;7.70;;;;;;;14.72;36.93;97823.06;5015066;28;20083;-68
2022/04/08 07:45:08;;;;;;;11.15;7.22;;;;;;;15.04;36.33;97813.88;4997010;28;20424;-69
2022/04/08 07:47:33;;;;;;;14.15;7.75;;;;;;;14.95;36.17;97815.81;5015196;28;20040;-68
2022/04/08 07:49:59;;;;;;;14.07;7.60;;;;;;;14.74;36.40;97810.31;5014904;28;20044;-67
2022/04/08 07:52:25;;;;;;;10.43;7.03;;;;;;;14.85;36.80;97809.88;4981038;28;20041;-68
2022/04/08 07:54:50;;;;;;;11.27;7.90;;;;;;;14.69;36.94;97807.31;4997573;28;20044;-68
2022/04/08 07:57:15;;;;;;;7.57;5.07;;;;;;;14.97;36.95;97821.00;5015011;28;20098;-69
2022/04/08 07:59:39;;;;;;;10.02;6.25;;;;;;;14.64;37.04;97812.41;5015689;28;20374;-71
2022/04/08 08:02:04;;;;;;;12.70;7.10;;;;;;;14.30;37.22;97802.06;5015165;28;20037;-68
2022/04/08 08:04:29;;;;;;;14.63;7.72;;;;;;;14.41;37.27;97815.09;4996749;28;20407;-68
2022/04/08 08:06:54;;;;;;;13.38;7.22;;;;;;;14.64;36.20;97799.81;5014918;28;20539;-68
2022/04/08 08:09:18;;;;;;;12.45;7.57;;;;;;;14.62;36.93;97807.22;5015074;28;20048;-67
2022/04/08 08:11:43;;;;;;;13.32;7.80;;;;;;;14.45;36.11;97811.00;5013747;28;20556;-67
2022/04/08 08:14:08;;;;;;;10.75;7.00;;;;;;;14.43;37.00;97810.38;5013340;28;20075;-68
2022/04/08 08:16:32;;;;;;;17.45;7.80;;;;;;;14.29;37.57;97811.09;5014853;28;20129;-68
2022/04/08 08:18:57;;;;;;;12.65;7.88;;;;;;;14.42;37.50;97804.19;5015037;28;20117;-67
2022/04/08 08:21:23;;;;;;;10.43;6.97;;;;;;;14.66;36.83;97800.47;5015415;28;20129;-77
2022/04/08 08:23:48;;;;;;;13.05;8.20;;;;;;;14.35;36.91;97800.50;5015480;28;20210;-75
2022/04/08 08:26:13;;;;;;;16.20;7.40;;;;;;;14.54;36.59;97807.28;4997504;28;20127;-76
2022/04/08 08:28:38;;;;;;;11.27;7.40;;;;;;;14.62;36.79;97793.81;5015217;28;20079;-75
2022/04/08 08:31:04;;;;;;;16.83;8.18;;;;;;;14.58;36.52;97810.41;5015143;28;20083;-74
2022/04/08 08:33:29;;;;;;;16.00;9.25;;;;;;;14.02;36.32;97789.16;5014710;28;20477;-75
2022/04/08 08:35:53;;;;;;;12.25;7.63;;;;;;;14.12;36.85;97784.41;5015335;28;20460;-75
2022/04/08 08:38:19;;;;;;;13.77;8.02;;;;;;;14.42;36.62;97788.09;5014837;28;20060;-75
2022/04/08 08:40:45;;;;;;;13.30;7.85;;;;;;;14.60;35.17;97781.56;5014932;28;20041;-74
2022/04/08 08:43:17;;;;;;;9.85;7.50;;;;;;;14.43;35.48;97796.97;5014811;28;20037;-75
2022/04/08 08:45:43;;;;;;;12.00;7.80;;;;;;;14.36;35.66;97783.41;5014943;28;20037;-75
2022/04/08 08:48:07;;;;;;;12.25;6.55;;;;;;;14.82;35.57;97781.53;4997521;28;20044;-76
2022/04/08 08:50:32;;;;;;;16.92;8.95;;;;;;;14.78;34.95;97772.22;5014553;28;20035;-75
2022/04/08 08:52:58;;;;;;;13.13;8.25;;;;;;;14.71;35.67;97784.66;5013324;28;20053;-76
2022/04/08 08:55:24;;;;;;;12.95;9.05;;;;;;;14.59;34.87;97767.34;5017591;28;20134;-75
2022/04/08 08:57:51;;;;;;;14.15;9.35;;;;;;;14.95;34.48;97772.03;5018475;28;20143;-75
2022/04/08 09:00:18;;;;;;;15.05;8.90;;;;;;;15.26;34.16;97778.91;5017976;28;20045;-73
2022/04/08 09:02:44;;;;;;;12.75;8.52;;;;;;;15.74;33.58;97773.19;5018209;28;20041;-75
2022/04/08 09:05:14;;;;;;;10.88;7.53;;;;;;;16.02;32.50;97773.34;5018331;28;20041;-76
2022/04/08 09:07:39;;;;;;;13.27;7.55;;;;;;;16.28;32.82;97766.38;5020751;28;20068;-76
2022/04/08 09:10:04;;;;;;;14.18;9.10;;;;;;;16.14;32.73;97766.44;5026629;28;20143;-78
2022/04/08 09:12:29;;;;;;;12.10;8.48;;;;;;;16.16;32.59;97762.50;5006199;28;20048;-75
2022/04/08 09:14:56;;;;;;;12.05;8.25;;;;;;;16.00;32.88;97743.94;5019261;28;20104;-75
2022/04/08 09:17:23;;;;;;;15.82;8.65;;;;;;;15.98;33.49;97754.06;5019412;28;20088;-76
2022/04/08 09:19:49;;;;;;;15.55;9.70;;;;;;;15.77;33.68;97751.31;5018680;28;20047;-76
2022/04/08 09:22:14;;;;;;;12.55;8.48;;;;;;;15.84;33.57;97754.91;5021214;28;20040;-75
2022/04/08 09:24:39;;;;;;;12.60;9.23;;;;;;;15.91;33.61;97742.41;5018811;28;20041;-76
2022/04/08 09:27:04;;;;;;;14.73;8.82;;;;;;;15.95;33.67;97749.06;5021301;28;20155;-77
2022/04/08 09:29:29;;;;;;;15.57;9.02;;;;;;;16.11;33.11;97739.94;5026304;28;20052;-77
2022/04/08 09:31:57;;;;;;;12.65;7.85;;;;;;;16.10;33.14;97755.22;5018541;28;20053;-75
2022/04/08 09:34:22;;;;;;;16.73;10.30;;;;;;;16.07;33.32;97738.63;5000242;28;20098;-74
2022/04/08 09:36:47;;;;;;;16.85;9.80;;;;;;;15.85;33.10;97735.91;5018389;28;20488;-75
2022/04/08 09:39:13;;;;;;;18.55;9.77;;;;;;;15.88;33.24;97749.00;5018273;28;20416;-74
2022/04/08 09:41:43;;;;;;;18.45;10.27;;;;;;;16.24;33.08;97754.34;5017892;28;20053;-75
2022/04/08 09:44:10;;;;;;;14.35;8.98;;;;;;;15.90;32.79;97738.06;5017945;28;20040;-75
2022/04/08 09:46:36;;;;;;;16.15;8.77;;;;;;;16.14;32.82;97748.44;5017728;28;20136;-75
2022/04/08 09:49:02;;;;;;;16.80;9.30;;;;;;;16.21;32.48;97757.41;4983346;28;20040;-77
2022/04/08 09:51:27;;;;;;;12.80;8.70;;;;;;;16.45;32.49;97725.78;5001504;28;20045;-78
2022/04/08 09:53:57;;;;;;;13.82;8.85;;;;;;;15.95;32.69;97736.44;5023219;28;20190;-75
2022/04/08 09:56:24;;;;;;;15.10;9.23;;;;;;;15.22;32.91;97736.53;5025514;28;20045;-78
2022/04/08 09:58:57;;;;;;;13.45;7.95;;;;;;;15.49;33.81;97735.84;5026584;28;20057;-75
2022/04/08 10:01:23;;;;;;;15.75;8.60;;;;;;;15.23;34.34;97741.72;5018803;28;20522;-74
2022/04/08 10:03:49;;;;;;;11.30;7.75;;;;;;;15.55;33.86;97745.91;5018598;28;20045;-74
2022/04/08 10:06:13;;;;;;;17.45;9.45;;;;;;;15.15;34.29;97739.13;4999524;28;20052;-74
2022/04/08 10:08:39;;;;;;;13.57;8.50;;;;;;;15.35;34.37;97735.91;5000331;28;20106;-76
2022/04/08 10:11:14;;;;;;;12.20;6.35;;;;;;;16.00;33.75;97743.94;5018162;28;20059;-75
2022/04/08 10:14:06;;;;;;;13.90;8.70;;;;;;;16.16;32.71;97732.94;5018775;28;20033;-75
2022/04/08 10:16:32;;;;;;;15.73;8.43;;;;;;;16.29;32.91;97741.16;5019535;28;20045;-75
2022/04/08 10:18:58;;;;;;;14.57;8.02;;;;;;;16.27;32.81;97737.81;5000799;28;20052;-77
2022/04/08 10:21:23;;;;;;;17.50;8.13;;;;;;;15.95;33.72;97736.44;5002020;28;20131;-76
2022/04/08 10:23:55;;;;;;;13.13;8.38;;;;;;;16.06;33.26;97715.47;5018572;28;20128;-75
2022/04/08 10:26:24;;;;;;;12.32;7.55;;;;;;;16.09;33.25;97718.63;5017527;28;20044;-75
2022/04/08 10:28:50;;;;;;;10.45;7.90;;;;;;;16.15;33.48;97715.16;4999207;28;20095;-74
2022/04/08 10:31:17;;;;;;;10.30;7.32;;;;;;;16.38;33.11;97711.41;4999856;28;20041;-74
2022/04/08 10:33:47;;;;;;;9.48;6.85;;;;;;;16.38;33.32;97714.13;5017272;28;20125;-78
2022/04/08 10:36:11;;;;;;;13.10;8.27;;;;;;;15.88;33.93;97718.59;5017701;28;20041;-76
2022/04/08 10:38:38;;;;;;;13.00;6.72;;;;;;;15.72;34.53;97719.66;5028001;28;20033;-76
2022/04/08 10:41:07;;;;;;;7.43;4.63;;;;;;;15.99;33.95;97710.03;5014944;28;20045;-74
2022/04/08 10:43:45;;;;;;;14.00;6.68;;;;;;;16.02;34.29;97717.72;5016079;28;20118;-75
2022/04/08 10:46:09;;;;;;;11.10;6.30;;;;;;;15.95;33.72;97706.06;5035254;28;20106;-76
2022/04/08 10:48:34;;;;;;;12.63;6.25;;;;;;;15.94;34.01;97712.44;5038911;28;20045;-73
2022/04/08 10:51:14;;;;;;;10.90;7.28;;;;;;;15.90;34.83;97705.81;5039495;28;20067;-74
2022/04/08 10:53:41;;;;;;;10.98;6.72;;;;;;;15.95;34.55;97704.19;5039827;28;20056;-73
2022/04/08 10:56:14;;;;;;;14.77;6.63;;;;;;;15.66;35.07;97706.97;5021931;28;20044;-75
2022/04/08 10:58:41;;;;;;;12.32;6.97;;;;;;;15.37;36.29;97699.75;5022899;28;20059;-74
2022/04/08 11:01:18;;;;;;;10.00;6.07;;;;;;;15.73;35.78;97696.28;5024254;28;20531;-72
2022/04/08 11:03:48;;;;;;;12.00;6.05;;;;;;;15.86;35.63;97696.44;5003531;28;20049;-73
2022/04/08 11:06:14;;;;;;;10.88;6.93;;;;;;;15.68;36.06;97704.94;5019188;28;20514;-74
2022/04/08 11:08:39;;;;;;;10.95;6.65;;;;;;;15.66;35.97;97703.47;5015743;28;20036;-73
2022/04/08 11:11:04;;;;;;;10.15;6.50;;;;;;;15.65;36.40;97699.09;5017045;28;20037;-76
2022/04/08 11:13:29;;;;;;;10.05;6.65;;;;;;;15.45;36.57;97707.72;5017460;28;20381;-75
2022/04/08 11:15:53;;;;;;;9.80;7.20;;;;;;;15.10;37.33;97697.75;5016346;28;20499;-75
2022/04/08 11:18:19;;;;;;;14.52;7.60;;;;;;;15.21;37.64;97694.59;4987132;28;20737;-73
2022/04/08 11:20:49;;;;;;;11.23;7.05;;;;;;;15.32;37.81;97691.44;4992455;28;20033;-73